Time;durP1;ratioP1;P1;durP2;ratioP2;P2;SDS_P1;SDS_P2;PMS_P1;PMS_P2;Temp;Humidity;BMP_temperature;BMP_pressure;BME280_temperature;BME280_humidity;BME280_pressure;Samples;Min_cycle;Max_cycle;Signal;HPM_P1;HPM_P2
2021/12/03 00:01:27;;;;;;;5.70;4.25;;;;;;;;;;5097997;28;20042;-84
2021/12/03 00:03:53;;;;;;;4.93;3.78;;;;;;;;;;5116377;28;20019;-84
2021/12/03 00:06:20;;;;;;;6.07;4.55;;;;;;;;;;5116149;28;20079;-84
2021/12/03 00:08:46;;;;;;;6.88;4.68;;;;;;;;;;5116341;28;20084;-84
2021/12/03 00:11:13;;;;;;;6.90;4.60;;;;;;;;;;5116370;28;20024;-84
2021/12/03 00:13:40;;;;;;;7.55;4.40;;;;;;;;;;5098064;28;20028;-84
2021/12/03 00:16:07;;;;;;;5.60;4.40;;;;;;;;;;5116274;28;20488;-84
2021/12/03 00:18:34;;;;;;;6.35;4.35;;;;;;;;;;5116926;28;20101;-83
2021/12/03 00:21:03;;;;;;;5.30;3.90;;;;;;;;;;5097558;28;20023;-84
2021/12/03 00:23:30;;;;;;;6.28;4.60;;;;;;;;;;5115831;28;20024;-83
2021/12/03 00:25:58;;;;;;;5.22;4.63;;;;;;;;;;5115753;28;20157;-84
2021/12/03 00:28:24;;;;;;;5.88;4.40;;;;;;;;;;5115754;28;20151;-83
2021/12/03 00:30:50;;;;;;;5.65;4.45;;;;;;;;;;5115640;28;20478;-84
2021/12/03 00:33:16;;;;;;;7.50;4.55;;;;;;;;;;5096978;28;20046;-84
2021/12/03 00:35:43;;;;;;;5.05;4.55;;;;;;;;;;5097322;28;20395;-84
2021/12/03 00:38:09;;;;;;;5.03;4.10;;;;;;;;;;5097174;28;20031;-84
2021/12/03 00:40:38;;;;;;;8.02;4.90;;;;;;;;;;5097372;28;20038;-84
2021/12/03 00:43:04;;;;;;;6.38;4.35;;;;;;;;;;5115607;28;20069;-84
2021/12/03 00:45:31;;;;;;;6.65;4.88;;;;;;;;;;5115271;28;20031;-84
2021/12/03 00:47:58;;;;;;;7.43;4.85;;;;;;;;;;5115559;28;20048;-83
2021/12/03 00:50:25;;;;;;;6.25;4.30;;;;;;;;;;5115382;28;20034;-83
2021/12/03 00:52:52;;;;;;;8.00;4.85;;;;;;;;;;5097246;28;20027;-83
2021/12/03 00:55:19;;;;;;;6.43;4.40;;;;;;;;;;5115424;28;20462;-83
2021/12/03 00:57:45;;;;;;;12.38;7.57;;;;;;;;;;5096996;28;20016;-83
2021/12/03 01:00:15;;;;;;;8.68;4.82;;;;;;;;;;5096967;28;20032;-83
2021/12/03 01:02:41;;;;;;;8.20;5.15;;;;;;;;;;5115380;28;20462;-83
2021/12/03 01:05:08;;;;;;;4.68;3.88;;;;;;;;;;5115063;28;20052;-83
2021/12/03 01:07:34;;;;;;;6.97;4.22;;;;;;;;;;5115052;28;20051;-83
2021/12/03 01:10:00;;;;;;;6.50;4.45;;;;;;;;;;5115123;28;20381;-83
2021/12/03 01:12:26;;;;;;;7.00;4.70;;;;;;;;;;5114894;28;20028;-83
2021/12/03 01:14:52;;;;;;;7.47;4.70;;;;;;;;;;5096741;28;20148;-83
2021/12/03 01:17:18;;;;;;;7.30;4.75;;;;;;;;;;5114950;28;20034;-82
2021/12/03 01:19:45;;;;;;;5.22;4.28;;;;;;;;;;5114914;28;20459;-83
2021/12/03 01:22:11;;;;;;;7.18;4.90;;;;;;;;;;5096571;28;20466;-83
2021/12/03 01:24:37;;;;;;;5.05;4.18;;;;;;;;;;5114806;28;20434;-83
2021/12/03 01:27:03;;;;;;;5.28;4.70;;;;;;;;;;5114728;28;20413;-82
2021/12/03 01:29:30;;;;;;;5.00;3.95;;;;;;;;;;5114692;28;20030;-83
2021/12/03 01:31:56;;;;;;;5.30;4.00;;;;;;;;;;5116909;28;20023;-83
2021/12/03 01:34:23;;;;;;;7.55;4.38;;;;;;;;;;5114249;28;20085;-82
2021/12/03 01:36:49;;;;;;;5.55;4.28;;;;;;;;;;5114266;28;20031;-83
2021/12/03 01:39:17;;;;;;;6.10;3.97;;;;;;;;;;5096088;28;20486;-83
2021/12/03 01:41:43;;;;;;;9.93;4.93;;;;;;;;;;5113841;28;20062;-83
2021/12/03 01:44:09;;;;;;;4.90;4.03;;;;;;;;;;5114340;28;20028;-83
2021/12/03 01:46:36;;;;;;;5.80;4.05;;;;;;;;;;5114336;28;20035;-83
2021/12/03 01:49:03;;;;;;;5.90;3.55;;;;;;;;;;5096286;28;20051;-82
2021/12/03 01:51:30;;;;;;;5.95;3.60;;;;;;;;;;5096199;28;20030;-82
2021/12/03 01:53:56;;;;;;;5.00;3.60;;;;;;;;;;5114520;28;20049;-82
2021/12/03 01:56:23;;;;;;;6.40;4.13;;;;;;;;;;5114223;28;20139;-82
2021/12/03 01:58:50;;;;;;;6.43;3.90;;;;;;;;;;5116022;28;20042;-83
2021/12/03 02:01:17;;;;;;;7.75;4.40;;;;;;;;;;5114114;28;20098;-84
2021/12/03 02:03:45;;;;;;;5.38;3.45;;;;;;;;;;5114281;28;20023;-83
2021/12/03 02:06:12;;;;;;;4.55;3.17;;;;;;;;;;5096204;28;20390;-84
2021/12/03 02:08:38;;;;;;;4.90;3.05;;;;;;;;;;5113972;28;20482;-83
2021/12/03 02:11:06;;;;;;;5.05;3.83;;;;;;;;;;5113743;28;20064;-84
2021/12/03 02:13:32;;;;;;;5.85;4.07;;;;;;;;;;5113786;28;20443;-84
2021/12/03 02:15:58;;;;;;;5.32;4.00;;;;;;;;;;5113784;28;20020;-83
2021/12/03 02:18:25;;;;;;;6.47;3.60;;;;;;;;;;5113842;28;20023;-83
2021/12/03 02:20:52;;;;;;;6.97;4.30;;;;;;;;;;5113910;28;20028;-83
2021/12/03 02:23:19;;;;;;;8.07;4.35;;;;;;;;;;5113779;28;20548;-83
2021/12/03 02:25:46;;;;;;;5.68;3.85;;;;;;;;;;5113673;28;20108;-82
2021/12/03 02:28:12;;;;;;;5.53;3.72;;;;;;;;;;5095564;28;20023;-81
2021/12/03 02:30:39;;;;;;;5.10;3.67;;;;;;;;;;5113855;28;20032;-80
2021/12/03 02:33:05;;;;;;;6.57;4.50;;;;;;;;;;5095170;28;20055;-81
2021/12/03 02:35:32;;;;;;;6.15;4.97;;;;;;;;;;5095375;28;20063;-80
2021/12/03 02:37:58;;;;;;;6.93;4.55;;;;;;;;;;5095450;28;20044;-81
2021/12/03 02:40:24;;;;;;;7.40;4.35;;;;;;;;;;5113633;28;20320;-81
2021/12/03 02:42:51;;;;;;;7.35;5.32;;;;;;;;;;5113605;28;20027;-80
2021/12/03 02:45:17;;;;;;;6.70;4.40;;;;;;;;;;5113635;28;20028;-80
2021/12/03 02:47:44;;;;;;;7.35;4.93;;;;;;;;;;5113850;28;20099;-81
2021/12/03 02:50:11;;;;;;;6.93;4.80;;;;;;;;;;5113362;28;20015;-80
2021/12/03 02:52:37;;;;;;;6.05;4.10;;;;;;;;;;5113552;28;20378;-81
2021/12/03 02:55:04;;;;;;;6.60;4.47;;;;;;;;;;5116456;28;20023;-80
2021/12/03 02:57:30;;;;;;;5.50;4.13;;;;;;;;;;5117689;28;20090;-80
2021/12/03 02:59:56;;;;;;;5.57;3.97;;;;;;;;;;5117911;28;20493;-81
2021/12/03 03:02:23;;;;;;;6.07;3.92;;;;;;;;;;5099154;28;20080;-80
2021/12/03 03:04:49;;;;;;;5.32;4.30;;;;;;;;;;5117680;28;20028;-80
2021/12/03 03:07:15;;;;;;;4.50;3.80;;;;;;;;;;5099180;28;20104;-80
2021/12/03 03:09:44;;;;;;;5.65;3.58;;;;;;;;;;5117313;28;20058;-82
2021/12/03 03:12:11;;;;;;;5.40;4.03;;;;;;;;;;5118061;28;20481;-80
2021/12/03 03:14:43;;;;;;;4.85;4.05;;;;;;;;;;5117366;28;20027;-79
2021/12/03 03:17:09;;;;;;;5.82;3.58;;;;;;;;;;5117260;28;20027;-80
2021/12/03 03:19:35;;;;;;;5.30;4.10;;;;;;;;;;5117112;28;20077;-80
2021/12/03 03:22:02;;;;;;;7.72;3.78;;;;;;;;;;5116932;28;20135;-80
2021/12/03 03:24:28;;;;;;;5.22;3.67;;;;;;;;;;5116927;28;20024;-79
2021/12/03 03:26:54;;;;;;;6.68;3.20;;;;;;;;;;5117057;28;20039;-80
2021/12/03 03:29:21;;;;;;;4.10;3.30;;;;;;;;;;5117143;28;20024;-79
2021/12/03 03:31:47;;;;;;;6.57;3.40;;;;;;;;;;5116958;28;20030;-80
2021/12/03 03:34:14;;;;;;;4.57;3.20;;;;;;;;;;5116576;28;20059;-80
2021/12/03 03:36:42;;;;;;;4.43;2.75;;;;;;;;;;5116775;28;20024;-80
2021/12/03 03:39:09;;;;;;;5.43;4.15;;;;;;;;;;5116718;28;20028;-80
2021/12/03 03:41:35;;;;;;;5.05;3.10;;;;;;;;;;5117003;28;20023;-81
2021/12/03 03:44:02;;;;;;;6.03;2.75;;;;;;;;;;5116613;28;20031;-80
2021/12/03 03:46:28;;;;;;;4.15;2.63;;;;;;;;;;5116584;28;20054;-81
2021/12/03 03:48:54;;;;;;;4.10;2.90;;;;;;;;;;5116416;28;20050;-81
2021/12/03 03:51:20;;;;;;;4.55;2.83;;;;;;;;;;5098372;28;20028;-81
2021/12/03 03:53:46;;;;;;;4.68;2.95;;;;;;;;;;5116621;28;20028;-81
2021/12/03 03:56:13;;;;;;;3.95;3.03;;;;;;;;;;5116427;28;20035;-80
2021/12/03 03:58:41;;;;;;;3.97;2.67;;;;;;;;;;5098067;28;20024;-81
2021/12/03 04:01:07;;;;;;;3.55;2.60;;;;;;;;;;5116435;28;20019;-81
2021/12/03 04:03:33;;;;;;;4.82;3.13;;;;;;;;;;5116557;28;20092;-81
2021/12/03 04:06:00;;;;;;;4.38;2.40;;;;;;;;;;5115597;28;20431;-81
2021/12/03 04:08:29;;;;;;;5.90;3.30;;;;;;;;;;5116105;28;20379;-81
2021/12/03 04:10:55;;;;;;;5.38;2.60;;;;;;;;;;5097639;28;20024;-81
2021/12/03 04:13:22;;;;;;;4.60;2.95;;;;;;;;;;5115971;28;20023;-80
2021/12/03 04:15:48;;;;;;;6.43;3.67;;;;;;;;;;5116162;28;20016;-81
2021/12/03 04:18:14;;;;;;;4.72;2.75;;;;;;;;;;5115991;28;20047;-81
2021/12/03 04:20:40;;;;;;;4.97;2.72;;;;;;;;;;5116254;28;20023;-81
2021/12/03 04:23:08;;;;;;;4.78;2.42;;;;;;;;;;5116206;28;20055;-80
2021/12/03 04:25:34;;;;;;;5.90;3.13;;;;;;;;;;5098357;28;20110;-82
2021/12/03 04:28:02;;;;;;;5.47;3.15;;;;;;;;;;5115834;28;20374;-82
2021/12/03 04:30:29;;;;;;;6.75;3.35;;;;;;;;;;5097481;28;20466;-81
2021/12/03 04:32:56;;;;;;;4.07;3.08;;;;;;;;;;5097134;28;20182;-79
2021/12/03 04:35:23;;;;;;;6.10;2.50;;;;;;;;;;5115544;28;20030;-82
2021/12/03 04:37:49;;;;;;;6.00;2.75;;;;;;;;;;5115539;28;20031;-81
2021/12/03 04:40:16;;;;;;;4.50;2.45;;;;;;;;;;5115588;28;20019;-81
2021/12/03 04:42:42;;;;;;;4.32;2.92;;;;;;;;;;5097177;28;20115;-81
2021/12/03 04:45:09;;;;;;;4.10;2.85;;;;;;;;;;5115334;28;20039;-82
2021/12/03 04:47:35;;;;;;;6.47;3.20;;;;;;;;;;5097131;28;20171;-82
2021/12/03 04:50:03;;;;;;;6.07;2.72;;;;;;;;;;5115277;28;20055;-81
2021/12/03 04:52:29;;;;;;;6.05;2.85;;;;;;;;;;5115302;28;20031;-81
2021/12/03 04:54:55;;;;;;;4.00;2.53;;;;;;;;;;5115551;28;20023;-81
2021/12/03 04:57:21;;;;;;;5.90;4.72;;;;;;;;;;5097141;28;20045;-81
2021/12/03 04:59:47;;;;;;;6.53;3.10;;;;;;;;;;5115277;28;20098;-82
2021/12/03 05:02:14;;;;;;;5.57;3.10;;;;;;;;;;5115281;28;20378;-81
2021/12/03 05:04:40;;;;;;;4.30;3.03;;;;;;;;;;5114887;28;20053;-81
2021/12/03 05:09:34;;;;;;;6.38;2.90;;;;;;;;;;5114869;28;20413;-81
2021/12/03 05:12:01;;;;;;;4.47;2.70;;;;;;;;;;5096699;28;20023;-82
2021/12/03 05:14:27;;;;;;;7.10;3.10;;;;;;;;;;5115927;28;20367;-81
2021/12/03 05:16:53;;;;;;;4.70;2.65;;;;;;;;;;5113994;28;20028;-82
2021/12/03 05:19:19;;;;;;;4.18;2.90;;;;;;;;;;5115102;28;20027;-83
2021/12/03 05:21:46;;;;;;;5.03;3.13;;;;;;;;;;5096596;28;20059;-82
2021/12/03 05:24:12;;;;;;;5.18;2.45;;;;;;;;;;5096551;28;20179;-86
2021/12/03 05:26:39;;;;;;;4.32;2.42;;;;;;;;;;5096669;28;20050;-81
2021/12/03 05:29:06;;;;;;;19.23;11.52;;;;;;;;;;5114815;28;20383;-80
2021/12/03 05:31:33;;;;;;;8.82;5.65;;;;;;;;;;5096486;28;20023;-80
2021/12/03 05:33:59;;;;;;;13.40;8.40;;;;;;;;;;5096044;28;20134;-81
2021/12/03 05:36:25;;;;;;;15.68;10.55;;;;;;;;;;5114542;28;20041;-81
2021/12/03 05:38:52;;;;;;;50.15;31.83;;;;;;;;;;5114330;28;20031;-84
2021/12/03 05:41:18;;;;;;;8.32;4.45;;;;;;;;;;5114455;28;20030;-83
2021/12/03 05:43:44;;;;;;;6.35;3.00;;;;;;;;;;5114311;28;20055;-82
2021/12/03 05:46:10;;;;;;;6.20;2.63;;;;;;;;;;5114330;28;20092;-82
2021/12/03 05:48:36;;;;;;;4.53;2.58;;;;;;;;;;5095940;28;20425;-82
2021/12/03 05:51:03;;;;;;;5.72;3.03;;;;;;;;;;5096037;28;20030;-82
2021/12/03 05:53:29;;;;;;;6.05;2.97;;;;;;;;;;5096262;28;20048;-83
2021/12/03 05:55:55;;;;;;;4.70;3.42;;;;;;;;;;5113216;28;20031;-80
2021/12/03 05:58:21;;;;;;;6.63;3.05;;;;;;;;;;5113520;28;20027;-81
2021/12/03 06:00:48;;;;;;;3.40;2.65;;;;;;;;;;5110615;28;20031;-82
2021/12/03 06:03:14;;;;;;;4.60;2.40;;;;;;;;;;5113471;28;20020;-80
2021/12/03 06:05:40;;;;;;;3.55;2.70;;;;;;;;;;5113358;28;20027;-84
2021/12/03 06:08:07;;;;;;;5.97;2.83;;;;;;;;;;5113404;28;20077;-80
2021/12/03 06:10:33;;;;;;;28.27;16.20;;;;;;;;;;5095032;28;20019;-78
2021/12/03 06:13:00;;;;;;;6.03;2.55;;;;;;;;;;5111772;28;20103;-81
2021/12/03 06:15:26;;;;;;;5.78;2.50;;;;;;;;;;5113176;28;20020;-79
2021/12/03 06:17:53;;;;;;;2.92;1.98;;;;;;;;;;5113056;28;20031;-79
2021/12/03 06:20:19;;;;;;;5.00;2.03;;;;;;;;;;5113232;28;20043;-81
2021/12/03 06:22:46;;;;;;;7.20;3.10;;;;;;;;;;5093677;28;20413;-80
2021/12/03 06:25:13;;;;;;;3.65;2.00;;;;;;;;;;5112150;28;20043;-78
2021/12/03 06:27:40;;;;;;;3.42;2.25;;;;;;;;;;5110364;28;20182;-79
2021/12/03 06:30:11;;;;;;;6.63;2.88;;;;;;;;;;5118845;28;20020;-80
2021/12/03 06:32:38;;;;;;;7.20;2.75;;;;;;;;;;5118664;28;20462;-80
2021/12/03 06:35:04;;;;;;;5.82;2.47;;;;;;;;;;5113084;28;20038;-80
2021/12/03 06:37:31;;;;;;;7.78;3.17;;;;;;;;;;5115323;28;20039;-81
2021/12/03 06:39:57;;;;;;;8.57;3.25;;;;;;;;;;5115947;28;20028;-81
2021/12/03 06:42:23;;;;;;;6.28;3.00;;;;;;;;;;5118661;28;20419;-83
2021/12/03 06:44:49;;;;;;;4.30;3.13;;;;;;;;;;5117819;28;20035;-84
2021/12/03 06:47:15;;;;;;;4.22;2.67;;;;;;;;;;5118577;28;20043;-82
2021/12/03 06:49:42;;;;;;;4.85;2.80;;;;;;;;;;5118634;28;20023;-84
2021/12/03 06:52:11;;;;;;;6.93;3.60;;;;;;;;;;5118661;28;20024;-86
2021/12/03 07:11:32;;;;;;;6.60;3.33;;;;;;;;;;5068356;28;20407;-85
2021/12/03 07:13:59;;;;;;;3.75;2.53;;;;;;;;;;5068917;28;20027;-72
2021/12/03 07:16:25;;;;;;;7.47;2.40;;;;;;;;;;5062474;28;20029;-82
2021/12/03 07:18:52;;;;;;;4.07;2.25;;;;;;;;;;5052771;28;20040;-79
2021/12/03 07:21:18;;;;;;;2.38;1.65;;;;;;;;;;5074132;28;20039;-80
2021/12/03 07:23:44;;;;;;;6.10;2.65;;;;;;;;;;5069171;28;20051;-81
2021/12/03 07:26:10;;;;;;;5.55;2.80;;;;;;;;;;5058853;28;20047;-82
2021/12/03 07:28:37;;;;;;;3.85;2.10;;;;;;;;;;5047309;28;20033;-70
2021/12/03 07:31:03;;;;;;;5.18;2.40;;;;;;;;;;5208559;22;20079;-81
2021/12/03 07:33:31;;;;;;;4.68;2.33;;;;;;;;;;5064787;28;20029;-76
2021/12/03 07:35:57;;;;;;;6.07;3.58;;;;;;;;;;5067646;28;20036;-82
2021/12/03 07:38:24;;;;;;;7.78;4.75;;;;;;;;;;5282285;22;20156;-80
2021/12/03 07:40:50;;;;;;;5.07;2.97;;;;;;;;;;5047599;28;20028;-78
2021/12/03 07:43:17;;;;;;;5.53;2.97;;;;;;;;;;5046832;28;20029;-84
2021/12/03 07:45:44;;;;;;;5.65;2.50;;;;;;;;;;5046999;28;20033;-83
2021/12/03 07:48:10;;;;;;;5.85;2.42;;;;;;;;;;5047063;28;20021;-85
2021/12/03 07:50:39;;;;;;;6.60;2.88;;;;;;;;;;5048303;28;20033;-82
2021/12/03 07:53:05;;;;;;;8.32;4.30;;;;;;;;;;5046256;28;20069;-81
2021/12/03 07:55:32;;;;;;;7.40;2.97;;;;;;;;;;5047517;28;20021;-79
2021/12/03 07:57:58;;;;;;;4.70;2.53;;;;;;;;;;5047916;28;20041;-85
2021/12/03 08:00:24;;;;;;;4.65;2.03;;;;;;;;;;5047805;28;20029;-80
2021/12/03 08:02:51;;;;;;;11.35;6.80;;;;;;;;;;5080458;28;20047;-84
2021/12/03 08:05:17;;;;;;;12.00;7.32;;;;;;;;;;5047544;28;20025;-79
2021/12/03 08:07:47;;;;;;;3.28;2.10;;;;;;;;;;5047885;28;20380;-81
2021/12/03 08:10:15;;;;;;;35.30;23.85;;;;;;;;;;5047623;28;20055;-83
2021/12/03 08:12:42;;;;;;;38.15;24.67;;;;;;;;;;5080020;28;20037;-84
2021/12/03 08:15:09;;;;;;;16.27;10.25;;;;;;;;;;5083420;28;20429;-84
2021/12/03 08:17:35;;;;;;;11.57;5.20;;;;;;;;;;5052022;28;20095;-84
2021/12/03 08:20:01;;;;;;;5.93;2.72;;;;;;;;;;5047319;28;20067;-82
2021/12/03 08:22:27;;;;;;;3.90;2.30;;;;;;;;;;5068867;28;20025;-85
2021/12/03 08:24:54;;;;;;;5.85;3.15;;;;;;;;;;5035040;28;20030;-86
2021/12/03 08:27:20;;;;;;;3.83;2.05;;;;;;;;;;5048693;28;20029;-82
2021/12/03 08:29:47;;;;;;;5.30;2.60;;;;;;;;;;5033586;28;20494;-82
2021/12/03 08:32:13;;;;;;;3.67;2.20;;;;;;;;;;5033790;28;20057;-82
2021/12/03 08:34:39;;;;;;;4.95;2.30;;;;;;;;;;5032378;28;20030;-81
2021/12/03 08:37:07;;;;;;;5.25;2.05;;;;;;;;;;5032691;28;20033;-83
2021/12/03 08:39:33;;;;;;;3.40;2.10;;;;;;;;;;5032842;28;20052;-80
2021/12/03 08:42:00;;;;;;;7.00;2.38;;;;;;;;;;5065459;28;20032;-80
2021/12/03 08:44:26;;;;;;;5.43;2.78;;;;;;;;;;5033762;28;20025;-84
2021/12/03 08:47:02;;;;;;;5.05;2.47;;;;;;;;;;5052067;28;20084;-83
2021/12/03 08:57:16;;;;;;;4.60;2.30;;;;;;;;;;5029279;28;20403;-83
2021/12/03 08:59:43;;;;;;;5.25;2.22;;;;;;;;;;5018943;28;20041;-82
2021/12/03 09:02:10;;;;;;;6.13;2.47;;;;;;;;;;5013929;28;20152;-83
2021/12/03 09:04:36;;;;;;;3.88;2.35;;;;;;;;;;5013521;28;20034;-84
2021/12/03 09:07:04;;;;;;;5.85;2.42;;;;;;;;;;5013981;28;20030;-79
2021/12/03 09:09:30;;;;;;;5.60;2.30;;;;;;;;;;5031363;28;20021;-82
2021/12/03 09:11:57;;;;;;;6.18;2.40;;;;;;;;;;5060042;28;20018;-82
2021/12/03 09:16:58;;;;;;;6.80;2.20;;;;;;;;;;5032249;28;20492;-83
2021/12/03 09:19:31;;;;;;;10.23;2.83;;;;;;;;;;5032525;28;20026;-83
2021/12/03 09:21:57;;;;;;;8.10;3.22;;;;;;;;;;5031876;28;20490;-86
2021/12/03 09:24:31;;;;;;;8.40;2.47;;;;;;;;;;5031484;28;20057;-83
2021/12/03 09:26:57;;;;;;;3.90;1.80;;;;;;;;;;5032790;28;20032;-80
2021/12/03 09:29:29;;;;;;;7.05;2.80;;;;;;;;;;5030731;28;20379;-82
2021/12/03 09:31:56;;;;;;;6.78;2.85;;;;;;;;;;5046910;28;20072;-82
2021/12/03 09:34:24;;;;;;;14.00;8.25;;;;;;;;;;5031069;28;20048;-81
2021/12/03 09:36:50;;;;;;;8.40;3.45;;;;;;;;;;5032874;28;20108;-82
2021/12/03 09:39:22;;;;;;;27.65;16.95;;;;;;;;;;5031607;28;20164;-82
2021/12/03 09:41:49;;;;;;;14.10;9.70;;;;;;;;;;5059750;28;20562;-81
2021/12/03 09:44:16;;;;;;;9.00;5.30;;;;;;;;;;5012641;28;20025;-81
2021/12/03 09:46:42;;;;;;;6.57;2.95;;;;;;;;;;5013352;28;20057;-82
2021/12/03 09:49:29;;;;;;;6.80;2.38;;;;;;;;;;5012539;28;20037;-82
2021/12/03 09:57:14;;;;;;;;;;;;;;;;;;5032910;28;20032;-83
2021/12/03 10:13:21;;;;;;;4.25;1.40;;;;;;;;;;4993282;28;20026;-82
2021/12/03 10:19:02;;;;;;;5.15;2.58;;;;;;;;;;5003406;28;20041;-81
2021/12/03 10:30:24;;;;;;;4.57;1.60;;;;;;;;;;5012289;28;20092;-81
2021/12/03 10:38:47;;;;;;;5.60;1.60;;;;;;;;;;5020339;28;20412;-82
2021/12/03 10:49:17;;;;;;;7.45;2.25;;;;;;;;;;5024210;28;20037;-80
2021/12/03 10:57:14;;;;;;;3.17;1.55;;;;;;;;;;5026198;28;20112;-80
2021/12/03 11:00:18;;;;;;;3.53;1.55;;;;;;;;;;5028947;28;20522;-79
2021/12/03 11:16:57;;;;;;;6.07;4.80;;;;;;;;;;5029910;28;20044;-70
2021/12/03 11:36:21;;;;;;;9.05;2.33;;;;;;;;;;5028963;28;20041;-83
2021/12/03 13:03:27;;;;;;;4.55;2.35;;;;;;;;;;5030874;28;20056;-80
2021/12/03 14:45:30;;;;;;;6.93;4.10;;;;;;;;;;5032585;28;20427;-85
2021/12/03 14:48:24;;;;;;;8.02;4.40;;;;;;;;;;5032385;28;20071;-86
2021/12/03 14:56:23;;;;;;;6.05;2.40;;;;;;;;;;5032666;28;20033;-84
2021/12/03 14:59:11;;;;;;;11.23;4.60;;;;;;;;;;5022854;28;20528;-84
2021/12/03 15:01:58;;;;;;;6.68;3.17;;;;;;;;;;5031732;28;20112;-83
2021/12/03 15:10:08;;;;;;;7.75;2.75;;;;;;;;;;5032174;28;19971;-84
2021/12/03 15:29:23;;;;;;;9.45;6.68;;;;;;;;;;5013293;28;20052;-83
2021/12/03 16:04:22;;;;;;;22.45;16.58;;;;;;;;;;5036784;28;20052;-84
2021/12/03 16:07:01;;;;;;;12.70;9.57;;;;;;;;;;5036143;28;20021;-83
2021/12/03 16:12:33;;;;;;;11.00;7.10;;;;;;;;;;5036645;28;20057;-82
2021/12/03 16:46:58;;;;;;;;;;;;;;;;;;5036210;28;20124;-83
2021/12/03 16:52:11;;;;;;;27.42;14.73;;;;;;;;;;5036012;28;20096;-79
2021/12/03 16:54:42;;;;;;;21.38;14.32;;;;;;;;;;5035544;28;20032;-83
2021/12/03 16:57:10;;;;;;;19.63;13.10;;;;;;;;;;5034145;28;20055;-80
2021/12/03 16:59:39;;;;;;;16.73;14.15;;;;;;;;;;5035637;28;20041;-79
2021/12/03 17:02:11;;;;;;;22.30;20.10;;;;;;;;;;5035566;28;20053;-80
2021/12/03 17:12:58;;;;;;;27.83;21.10;;;;;;;;;;5035333;28;20506;-81
2021/12/03 18:57:19;;;;;;;8.82;5.82;;;;;;;;;;5033641;28;20054;-82
2021/12/03 18:59:54;;;;;;;8.65;6.03;;;;;;;;;;5032804;28;20037;-85
2021/12/03 19:02:23;;;;;;;7.80;5.05;;;;;;;;;;5033563;28;20032;-89
2021/12/03 19:07:28;;;;;;;4.13;3.30;;;;;;;;;;5033585;28;20048;-88
2021/12/03 19:10:01;;;;;;;8.15;6.32;;;;;;;;;;5032271;28;20037;-81
2021/12/03 19:12:29;;;;;;;4.53;3.83;;;;;;;;;;5032342;28;20029;-87
2021/12/03 19:14:57;;;;;;;4.82;4.13;;;;;;;;;;5033568;28;20494;-82
2021/12/03 19:17:23;;;;;;;6.55;4.60;;;;;;;;;;5033618;28;20386;-83
2021/12/03 19:19:53;;;;;;;8.88;5.43;;;;;;;;;;5033667;28;20030;-81
2021/12/03 19:22:21;;;;;;;5.82;4.30;;;;;;;;;;5033762;28;20029;-85
2021/12/03 19:24:47;;;;;;;6.47;3.97;;;;;;;;;;5033314;28;20025;-81
2021/12/03 19:27:13;;;;;;;6.97;4.05;;;;;;;;;;5033804;28;20408;-82
2021/12/03 19:29:42;;;;;;;4.70;3.97;;;;;;;;;;5040020;28;20518;-82
2021/12/03 19:32:09;;;;;;;5.18;3.70;;;;;;;;;;5033494;28;20025;-82
2021/12/03 19:34:35;;;;;;;3.75;3.20;;;;;;;;;;5033255;28;20024;-80
2021/12/03 19:37:04;;;;;;;4.25;3.03;;;;;;;;;;5033281;28;20472;-84
2021/12/03 19:39:30;;;;;;;5.30;4.13;;;;;;;;;;5033128;28;20515;-82
2021/12/03 19:47:14;;;;;;;4.45;2.90;;;;;;;;;;5033301;28;20076;-83
2021/12/03 19:52:37;;;;;;;7.82;4.30;;;;;;;;;;5033126;28;20143;-77
2021/12/03 19:54:59;;;;;;;4.03;3.00;;;;;;;;;;5033050;28;20469;-79
2021/12/03 19:57:25;;;;;;;3.72;3.20;;;;;;;;;;5033179;28;20491;-81
2021/12/03 19:59:51;;;;;;;3.70;2.13;;;;;;;;;;5032844;28;20025;-81
2021/12/03 20:02:18;;;;;;;4.85;3.30;;;;;;;;;;5032855;28;20033;-78
2021/12/03 20:04:45;;;;;;;4.18;2.53;;;;;;;;;;5031647;28;20120;-81
2021/12/03 20:07:11;;;;;;;3.83;2.50;;;;;;;;;;5025829;28;20026;-82
2021/12/03 20:09:50;;;;;;;2.78;2.10;;;;;;;;;;5032914;28;20119;-76
2021/12/03 20:12:20;;;;;;;4.70;2.38;;;;;;;;;;5065040;28;20038;-79
2021/12/03 20:14:49;;;;;;;3.70;1.92;;;;;;;;;;5033286;28;20049;-79
2021/12/03 20:19:45;;;;;;;4.85;2.80;;;;;;;;;;5036400;28;20572;-80
2021/12/03 20:22:19;;;;;;;8.48;3.67;;;;;;;;;;5036644;28;20029;-79
2021/12/03 20:38:46;;;;;;;3.28;2.42;;;;;;;;;;5036164;28;20060;-80
2021/12/03 20:41:17;;;;;;;2.75;2.05;;;;;;;;;;5036158;28;20024;-83
2021/12/03 20:44:00;;;;;;;3.35;2.10;;;;;;;;;;5068374;28;20049;-80
2021/12/03 21:10:25;;;;;;;4.15;2.38;;;;;;;;;;5035564;28;20558;-83
2021/12/03 21:12:54;;;;;;;2.95;2.20;;;;;;;;;;5035575;28;20041;-82
2021/12/03 21:18:14;;;;;;;2.72;1.70;;;;;;;;;;5035393;28;20426;-83
2021/12/03 21:23:11;;;;;;;2.13;1.58;;;;;;;;;;5035225;28;20423;-80
2021/12/03 21:25:38;;;;;;;2.20;1.30;;;;;;;;;;5035298;28;20029;-82
2021/12/03 21:28:17;;;;;;;2.08;1.50;;;;;;;;;;5035156;28;20057;-82
2021/12/03 21:44:01;;;;;;;2.08;1.13;;;;;;;;;;5035152;28;20043;-79
2021/12/03 21:46:29;;;;;;;3.13;1.55;;;;;;;;;;5066807;28;20385;-80
2021/12/03 21:48:55;;;;;;;3.28;1.20;;;;;;;;;;5035042;28;20105;-82
2021/12/03 21:51:23;;;;;;;3.85;1.67;;;;;;;;;;5034706;28;20033;-81
2021/12/03 21:53:50;;;;;;;3.15;1.45;;;;;;;;;;5034751;28;20032;-83
2021/12/03 21:56:17;;;;;;;3.03;2.30;;;;;;;;;;5034842;28;20021;-81
2021/12/03 21:58:44;;;;;;;5.10;2.75;;;;;;;;;;5066702;28;20075;-81
2021/12/03 22:01:10;;;;;;;2.63;1.17;;;;;;;;;;5034448;28;20037;-82
2021/12/03 22:03:37;;;;;;;1.88;1.20;;;;;;;;;;5034528;28;20483;-84
2021/12/03 22:06:04;;;;;;;2.42;1.70;;;;;;;;;;5034541;28;20502;-84
2021/12/03 22:08:30;;;;;;;2.70;1.50;;;;;;;;;;5034335;28;20376;-82
2021/12/03 22:10:57;;;;;;;2.25;1.58;;;;;;;;;;5066231;28;20033;-85
2021/12/03 22:13:24;;;;;;;2.25;1.52;;;;;;;;;;5034428;28;20032;-78
2021/12/03 22:15:54;;;;;;;3.47;2.08;;;;;;;;;;5065986;28;20036;-77
2021/12/03 22:18:21;;;;;;;2.72;1.45;;;;;;;;;;5034129;28;20117;-81
2021/12/03 22:20:51;;;;;;;2.33;1.23;;;;;;;;;;5065966;28;20090;-82
2021/12/03 22:23:17;;;;;;;3.50;1.73;;;;;;;;;;5034307;28;20354;-83
2021/12/03 22:25:43;;;;;;;2.55;1.50;;;;;;;;;;5034216;28;20461;-77
2021/12/03 22:28:10;;;;;;;3.28;1.55;;;;;;;;;;5066016;28;20057;-82
2021/12/03 22:30:40;;;;;;;2.13;1.42;;;;;;;;;;5034122;28;20041;-81
2021/12/03 22:33:07;;;;;;;2.70;1.42;;;;;;;;;;5034036;28;20026;-81
2021/12/03 22:35:33;;;;;;;2.75;1.50;;;;;;;;;;5033990;28;20049;-82
2021/12/03 22:37:59;;;;;;;1.88;1.35;;;;;;;;;;5033946;28;20464;-81
2021/12/03 22:40:25;;;;;;;2.20;1.25;;;;;;;;;;5033457;28;20064;-81
2021/12/03 22:42:51;;;;;;;3.78;1.92;;;;;;;;;;5034037;28;20029;-79
2021/12/03 22:45:24;;;;;;;3.08;2.00;;;;;;;;;;5034167;28;20022;-83
2021/12/03 22:50:47;;;;;;;2.63;1.80;;;;;;;;;;5033999;28;20045;-84
2021/12/03 22:53:13;;;;;;;2.20;1.35;;;;;;;;;;5033593;28;20025;-78
2021/12/03 22:55:40;;;;;;;2.90;1.80;;;;;;;;;;5033924;28;20100;-84
2021/12/03 22:58:09;;;;;;;2.13;1.60;;;;;;;;;;5033592;28;20423;-79
2021/12/03 23:00:55;;;;;;;2.95;1.95;;;;;;;;;;5033407;28;20026;-83
2021/12/03 23:03:22;;;;;;;2.55;1.73;;;;;;;;;;5033404;28;20036;-80
2021/12/03 23:05:49;;;;;;;2.28;1.52;;;;;;;;;;5033291;28;20075;-82
2021/12/03 23:08:15;;;;;;;2.38;1.70;;;;;;;;;;5033324;28;20021;-83
2021/12/03 23:10:42;;;;;;;2.83;1.85;;;;;;;;;;5030391;28;20053;-78
2021/12/03 23:13:08;;;;;;;2.65;1.70;;;;;;;;;;5032822;28;20029;-80
2021/12/03 23:15:35;;;;;;;2.38;1.55;;;;;;;;;;5033426;28;20021;-81
2021/12/03 23:18:01;;;;;;;2.92;1.42;;;;;;;;;;5033731;28;20025;-77
2021/12/03 23:20:27;;;;;;;2.78;1.90;;;;;;;;;;5033268;28;20029;-81
2021/12/03 23:22:54;;;;;;;2.75;1.70;;;;;;;;;;5033561;28;20021;-81
2021/12/03 23:25:20;;;;;;;4.90;3.03;;;;;;;;;;5033158;28;20438;-80
2021/12/03 23:27:47;;;;;;;3.30;2.35;;;;;;;;;;5033272;28;20108;-85
2021/12/03 23:30:14;;;;;;;3.30;2.17;;;;;;;;;;5033267;28;20026;-76
2021/12/03 23:32:41;;;;;;;5.97;2.20;;;;;;;;;;5033346;28;20113;-77
2021/12/03 23:35:07;;;;;;;3.05;2.25;;;;;;;;;;5033732;28;20104;-86
2021/12/03 23:37:34;;;;;;;2.15;1.63;;;;;;;;;;5033232;28;20060;-82
2021/12/03 23:40:01;;;;;;;4.10;2.70;;;;;;;;;;5033078;28;20037;-82
2021/12/03 23:42:27;;;;;;;2.55;1.95;;;;;;;;;;5033223;28;20033;-81
2021/12/03 23:44:53;;;;;;;3.25;2.25;;;;;;;;;;5033483;28;20060;-82
2021/12/03 23:47:19;;;;;;;3.13;2.25;;;;;;;;;;5032969;28;20030;-78
2021/12/03 23:49:45;;;;;;;2.78;2.15;;;;;;;;;;5033559;28;20472;-79
2021/12/03 23:52:11;;;;;;;2.22;1.50;;;;;;;;;;5033444;28;20044;-79
2021/12/03 23:54:38;;;;;;;3.08;2.08;;;;;;;;;;5052888;28;20515;-82
2021/12/03 23:57:07;;;;;;;2.22;1.70;;;;;;;;;;5036901;28;20025;-79
2021/12/03 23:59:34;;;;;;;4.65;2.35;;;;;;;;;;5036827;28;20029;-84
